Terminal Aerodrome Forecast
Issued by NWS

Home | Current Version | Previous Version | Text Only | Print | Product List | Glossary On
Versions: 1 2 3 4 5 6 7 8 9 10 11 12 13 14 15 16 17 18 19 20
000
FTUS43 KDLH 201230 AAA
TAFHYR
TAF AMD
KHYR 201230Z 2013/2112 VRB03KT P6SM FEW001 BKN200
     FM201600 30005KT P6SM SCT040
     FM210200 00000KT P6SM FEW100
      TEMPO 2108/2112 3SM BR SCT003=

USA.gov is the U.S. government's official web portal to all federal, state and local government web resources and services.